createdAt,value
2022-10-23T00:04:40.693Z,100133.78
2022-10-23T00:09:42.881Z,100140.72
2022-10-23T00:14:45.139Z,100128.88
2022-10-23T00:19:47.383Z,100135.78
2022-10-23T00:24:49.835Z,100136.06
2022-10-23T00:29:52.072Z,100140.09
2022-10-23T00:34:54.413Z,100130.06
2022-10-23T00:39:56.685Z,100124.16
2022-10-23T00:45:09.300Z,100119.19
2022-10-23T00:50:11.611Z,100122.47
2022-10-23T00:55:14.675Z,100125.88
2022-10-23T01:00:19.405Z,100118.63
2022-10-23T01:05:24.422Z,100115.38
2022-10-23T01:10:36.971Z,100110.28
2022-10-23T01:15:51.050Z,100111.47
2022-10-23T01:21:00.384Z,100112.50
2022-10-23T01:26:20.273Z,100114.47
2022-10-23T01:31:25.877Z,100107.69
2022-10-23T01:36:30.793Z,100111.34
2022-10-23T01:41:44.521Z,100109.66
2022-10-23T01:46:50.522Z,100101.59
2022-10-23T01:51:55.196Z,100099.59
2022-10-23T01:56:58.644Z,100100.38
2022-10-23T02:02:04.743Z,100089.09
2022-10-23T02:07:08.562Z,100087.63
2022-10-23T02:12:14.197Z,100077.53
2022-10-23T02:17:31.688Z,100078.28
2022-10-23T02:22:37.633Z,100086.34
2022-10-23T02:27:49.128Z,100094.09
2022-10-23T02:32:54.972Z,100093.25
2022-10-23T02:37:59.292Z,100093.41
2022-10-23T02:43:10.438Z,100097.03
2022-10-23T02:48:17.404Z,100098.88
2022-10-23T02:53:19.704Z,100099.34
2022-10-23T02:58:33.329Z,100096.19
2022-10-23T03:03:38.268Z,100087.88
2022-10-23T03:08:44.375Z,100090.88
2022-10-23T03:13:46.692Z,100094.28
2022-10-23T03:18:48.891Z,100081.97
2022-10-23T03:23:51.181Z,100091.03
2022-10-23T03:28:58.619Z,100089.31
2022-10-23T03:34:02.246Z,100093.38
2022-10-23T03:39:06.460Z,100085.91
2022-10-23T03:44:08.745Z,100094.66
2022-10-23T03:49:11.057Z,100094.91
2022-10-23T03:54:13.270Z,100094.53
2022-10-23T03:59:16.472Z,100099.84
2022-10-23T04:04:18.882Z,100100.81
2022-10-23T04:15:47.915Z,100107.28
2022-10-23T04:20:52.684Z,100103.94
2022-10-23T04:25:58.205Z,100105.91
2022-10-23T04:31:01.340Z,100103.34
2022-10-23T04:36:04.043Z,100109.31
2022-10-23T04:41:06.437Z,100102.72
2022-10-23T04:46:10.765Z,100101.22
2022-10-23T04:51:13.016Z,100106.75
2022-10-23T04:56:31.812Z,100109.13
2022-10-23T05:01:38.640Z,100108.19
2022-10-23T05:06:42.917Z,100106.38
2022-10-23T05:12:07.040Z,100109.00
2022-10-23T05:17:11.376Z,100117.22
2022-10-23T05:22:15.279Z,100111.00
2022-10-23T05:27:23.320Z,100114.72
2022-10-23T05:32:29.090Z,100111.84
2022-10-23T05:37:31.507Z,100117.81
2022-10-23T05:42:47.836Z,100120.03
2022-10-23T05:47:53.905Z,100129.41
2022-10-23T05:53:37.349Z,100134.09
2022-10-23T05:58:50.307Z,100135.78
2022-10-23T06:04:05.172Z,100147.56
2022-10-23T06:09:26.342Z,100150.47
2022-10-23T06:14:32.749Z,100160.72
2022-10-23T06:19:35.179Z,100161.41
2022-10-23T06:24:37.517Z,100160.63
2022-10-23T06:29:45.635Z,100164.97
2022-10-23T06:34:48.074Z,100173.69
2022-10-23T06:39:50.366Z,100184.44
2022-10-23T06:45:04.914Z,100177.41
2022-10-23T06:50:31.174Z,100182.75
2022-10-23T06:55:35.875Z,100190.34
2022-10-23T07:00:38.966Z,100190.47
2022-10-23T07:05:44.868Z,100194.09
2022-10-23T07:10:48.916Z,100203.44
2022-10-23T07:15:53.832Z,100210.69
2022-10-23T07:20:59.863Z,100213.00
2022-10-23T07:26:08.557Z,100217.34
2022-10-23T07:31:12.083Z,100217.34
2022-10-23T07:36:32.868Z,100221.00
2022-10-23T07:41:35.308Z,100222.69
2022-10-23T07:46:37.659Z,100225.31
2022-10-23T07:51:40.350Z,100232.75
2022-10-23T07:56:43.709Z,100231.56
2022-10-23T08:01:56.867Z,100228.81
2022-10-23T08:07:11.905Z,100227.28
2022-10-23T08:12:17.830Z,100237.47
2022-10-23T08:17:21.037Z,100231.34
2022-10-23T08:22:29.853Z,100232.34
2022-10-23T08:27:32.705Z,100228.38
2022-10-23T08:32:35.049Z,100231.03
2022-10-23T08:37:38.431Z,100231.00
2022-10-23T08:42:44.587Z,100229.50
2022-10-23T08:47:50.929Z,100226.03
2022-10-23T08:53:17.581Z,100230.44
2022-10-23T08:58:25.695Z,100235.53
2022-10-23T09:03:27.968Z,100228.06
2022-10-23T09:08:30.194Z,100231.53
2022-10-23T09:13:51.091Z,100226.50
2022-10-23T09:18:54.309Z,100226.41
2022-10-23T09:23:56.639Z,100234.16
2022-10-23T09:29:07.475Z,100223.59
2022-10-23T09:34:18.157Z,100228.16
2022-10-23T09:39:26.454Z,100231.00
2022-10-23T09:44:29.948Z,100236.28
2022-10-23T09:49:34.146Z,100246.44
2022-10-23T09:54:44.413Z,100241.09
2022-10-23T09:59:51.365Z,100236.28
2022-10-23T10:04:53.551Z,100236.03
2022-10-23T10:09:57.682Z,100217.28
2022-10-23T10:15:02.592Z,100244.03
2022-10-23T10:20:10.852Z,100235.06
2022-10-23T10:25:28.698Z,100228.91
2022-10-23T10:30:41.149Z,100229.59
2022-10-23T10:35:43.320Z,100232.06
2022-10-23T10:41:05.745Z,100221.50
2022-10-23T10:46:31.261Z,100214.25
2022-10-23T10:51:39.059Z,100209.28
2022-10-23T10:56:43.227Z,100203.72
2022-10-23T11:02:04.723Z,100202.50
2022-10-23T11:07:13.313Z,100201.34
2022-10-23T11:12:18.000Z,100205.50
2022-10-23T11:17:49.714Z,100199.84
2022-10-23T11:22:54.994Z,100195.13
2022-10-23T11:28:03.631Z,100187.59
2022-10-23T11:33:28.222Z,100176.44
2022-10-23T11:38:33.291Z,100169.66
2022-10-23T11:43:47.278Z,100162.84
2022-10-23T11:48:49.776Z,100150.34
2022-10-23T11:53:51.988Z,100150.34
2022-10-23T11:58:58.762Z,100147.69
2022-10-23T12:04:15.695Z,100139.28
2022-10-23T12:09:29.902Z,100130.53
2022-10-23T12:14:46.840Z,100124.75
2022-10-23T12:19:50.243Z,100122.31
2022-10-23T12:24:55.533Z,100122.97
2022-10-23T12:30:14.481Z,100116.19
2022-10-23T12:35:35.544Z,100108.66
2022-10-23T12:40:37.799Z,100104.09
2022-10-23T12:45:40.783Z,100088.78
2022-10-23T12:50:47.877Z,100083.72
2022-10-23T12:55:53.691Z,100085.41
2022-10-23T13:00:57.756Z,100087.66
2022-10-23T13:06:04.318Z,100086.59
2022-10-23T13:11:06.884Z,100082.47
2022-10-23T13:16:14.437Z,100072.94
2022-10-23T13:21:21.607Z,100068.28
2022-10-23T13:26:25.663Z,100068.91
2022-10-23T13:31:30.330Z,100066.19
2022-10-23T13:36:35.496Z,100065.13
2022-10-23T13:41:45.667Z,100055.09
2022-10-23T13:46:48.549Z,100051.81
2022-10-23T13:51:52.016Z,100050.75
2022-10-23T13:56:54.674Z,100051.16
2022-10-23T14:06:42.236Z,100039.31
2022-10-23T14:11:44.935Z,100034.78
2022-10-23T14:16:47.050Z,100040.16
2022-10-23T14:21:49.215Z,100045.31
2022-10-23T14:26:53.233Z,100042.78
2022-10-23T14:31:55.391Z,100043.34
2022-10-23T14:37:08.185Z,100040.75
2022-10-23T14:42:11.560Z,100043.41
2022-10-23T14:47:13.656Z,100040.00
2022-10-23T14:52:15.898Z,100040.63
2022-10-23T14:57:20.993Z,100041.19
2022-10-23T15:02:23.115Z,100030.47
2022-10-23T15:07:25.325Z,100036.69
2022-10-23T15:12:27.537Z,100029.97
2022-10-23T15:17:29.794Z,100032.13
2022-10-23T15:22:32.001Z,100033.06
2022-10-23T15:27:34.168Z,100024.66
2022-10-23T15:32:36.412Z,100033.94
2022-10-23T15:37:38.606Z,100032.97
2022-10-23T15:42:42.129Z,100030.13
2022-10-23T15:47:44.829Z,100034.16
2022-10-23T15:52:47.238Z,100027.06
2022-10-23T15:57:49.485Z,100035.50
2022-10-23T16:02:52.913Z,100035.84
2022-10-23T16:07:55.160Z,100036.38
2022-10-23T16:12:57.385Z,100035.47
2022-10-23T16:17:59.543Z,100040.31
2022-10-23T16:23:03.821Z,100046.59
2022-10-23T16:28:06.894Z,100056.00
2022-10-23T16:33:10.045Z,100061.38
2022-10-23T16:38:12.192Z,100066.63
2022-10-23T16:43:14.465Z,100077.03
2022-10-23T16:48:20.945Z,100081.78
2022-10-23T16:53:24.687Z,100076.94
2022-10-23T16:58:27.262Z,100078.84
2022-10-23T17:03:30.324Z,100081.03
2022-10-23T17:08:32.532Z,100090.16
2022-10-23T17:13:36.422Z,100097.44
2022-10-23T17:18:42.850Z,100099.09
2022-10-23T17:23:47.391Z,100098.56
2022-10-23T17:28:49.731Z,100109.34
2022-10-23T17:33:53.474Z,100118.19
2022-10-23T17:38:55.687Z,100120.88
2022-10-23T17:43:58.872Z,100120.41
2022-10-23T17:54:08.532Z,100114.13
2022-10-23T17:59:14.778Z,100114.91
2022-10-23T18:04:18.390Z,100122.84
2022-10-23T18:09:21.619Z,100116.03
2022-10-23T18:14:26.130Z,100115.56
2022-10-23T18:19:30.812Z,100091.00
2022-10-23T18:24:33.454Z,100111.59
2022-10-23T18:29:37.975Z,100109.47
2022-10-23T18:34:40.213Z,100107.63
2022-10-23T18:39:43.271Z,100105.19
2022-10-23T18:44:49.959Z,100103.28
2022-10-23T18:49:52.201Z,100097.25
2022-10-23T18:54:54.370Z,100100.94
2022-10-23T18:59:56.595Z,100096.72
2022-10-23T19:04:58.841Z,100100.09
2022-10-23T19:10:02.569Z,100102.78
2022-10-23T19:15:04.926Z,100107.69
2022-10-23T19:20:10.951Z,100100.66
2022-10-23T19:25:26.953Z,100101.50
2022-10-23T19:30:29.398Z,100105.91
2022-10-23T19:35:31.541Z,100107.44
2022-10-23T19:40:33.761Z,100107.63
2022-10-23T19:45:36.064Z,100115.66
2022-10-23T19:50:38.281Z,100123.75
2022-10-23T19:55:40.532Z,100122.19
2022-10-23T20:00:42.723Z,100092.88
2022-10-23T20:05:45.784Z,100131.50
2022-10-23T20:10:48.065Z,100129.81
2022-10-23T20:15:50.345Z,100124.72
2022-10-23T20:20:53.234Z,100133.63
2022-10-23T20:25:55.375Z,100129.22
2022-10-23T20:30:57.595Z,100126.56
2022-10-23T20:35:59.950Z,100122.75
2022-10-23T20:41:05.821Z,100123.41
2022-10-23T20:46:08.959Z,100121.56
2022-10-23T20:51:12.792Z,100125.22
2022-10-23T20:56:16.839Z,100139.72
2022-10-23T21:01:19.388Z,100145.78
2022-10-23T21:06:21.885Z,100140.50
2022-10-23T21:11:24.876Z,100139.31
2022-10-23T21:16:28.947Z,100137.59
2022-10-23T21:21:33.134Z,100138.66
2022-10-23T21:26:35.432Z,100135.31
2022-10-23T21:31:37.557Z,100135.03
2022-10-23T21:37:00.175Z,100144.47
2022-10-23T21:42:01.983Z,100124.06
2022-10-23T21:47:04.249Z,100123.28
2022-10-23T21:52:06.729Z,100123.41
2022-10-23T21:57:12.886Z,100113.19
2022-10-23T22:02:15.129Z,100117.75
2022-10-23T22:07:18.510Z,100113.31
2022-10-23T22:12:20.734Z,100110.97
2022-10-23T22:17:22.904Z,100116.44
2022-10-23T22:22:25.156Z,100116.03
2022-10-23T22:27:27.927Z,100112.25
2022-10-23T22:32:30.248Z,100112.63
2022-10-23T22:37:32.433Z,100110.22
2022-10-23T22:42:34.665Z,100106.72
2022-10-23T22:47:36.838Z,100102.50
2022-10-23T22:52:39.071Z,100106.81
2022-10-23T22:57:41.365Z,100109.63
2022-10-23T23:02:43.741Z,100109.63
2022-10-23T23:07:46.141Z,100103.19
2022-10-23T23:12:50.629Z,100102.50
2022-10-23T23:17:52.757Z,100110.25
2022-10-23T23:22:54.977Z,100102.41
2022-10-23T23:27:57.708Z,100109.41
2022-10-23T23:32:59.863Z,100109.47
2022-10-23T23:38:02.015Z,100113.91
2022-10-23T23:43:04.563Z,100102.47
2022-10-23T23:48:06.859Z,100103.81
2022-10-23T23:53:09.119Z,100098.47
2022-10-23T23:58:12.063Z,100082.63
